createdAt,value
2022-12-23T00:01:29.891Z,97629.56
2022-12-23T00:03:32.845Z,97638.91
2022-12-23T00:05:39.187Z,97631.25
2022-12-23T00:07:40.711Z,97631.53
2022-12-23T00:09:42.360Z,97626.88
2022-12-23T00:12:03.856Z,97625.28
2022-12-23T00:14:24.013Z,97634.25
2022-12-23T00:16:25.960Z,97628.56
2022-12-23T00:18:27.571Z,97629.63
2022-12-23T00:20:29.079Z,97628.53
2022-12-23T00:22:52.259Z,97627.41
2022-12-23T00:24:53.986Z,97617.88
2022-12-23T00:26:55.593Z,97625.28
2022-12-23T00:28:58.661Z,97625.53
2022-12-23T00:31:07.775Z,97611.59
2022-12-23T00:33:09.310Z,97618.16
2022-12-23T00:35:11.062Z,97619.25
2022-12-23T00:37:12.604Z,97618.16
2022-12-23T00:39:32.886Z,97616.00
2022-12-23T00:41:53.795Z,97616.00
2022-12-23T00:43:55.459Z,97612.69
2022-12-23T00:45:56.968Z,97616.25
2022-12-23T00:48:17.177Z,97622.28
2022-12-23T00:50:18.857Z,97620.94
2022-12-23T00:52:20.387Z,97615.44
2022-12-23T00:54:22.055Z,97614.09
2022-12-23T00:56:23.576Z,97611.59
2022-12-23T00:58:28.309Z,97617.06
2022-12-23T01:00:48.504Z,97616.25
2022-12-23T01:03:09.136Z,97612.13
2022-12-23T01:05:31.496Z,97608.56
2022-12-23T01:07:34.964Z,97602.53
2022-12-23T01:09:39.683Z,97606.31
2022-12-23T01:11:41.711Z,97597.06
2022-12-23T01:13:43.343Z,97594.66
2022-12-23T01:15:45.117Z,97593.03
2022-12-23T01:17:46.747Z,97602.84
2022-12-23T01:19:48.553Z,97600.13
2022-12-23T01:21:50.084Z,97596.81
2022-12-23T01:23:51.644Z,97600.66
2022-12-23T01:25:58.424Z,97601.81
2022-12-23T01:27:59.872Z,97595.00
2022-12-23T01:30:01.985Z,97594.47
2022-12-23T01:32:03.900Z,97592.81
2022-12-23T01:34:05.665Z,97595.03
2022-12-23T01:36:09.431Z,97595.03
2022-12-23T01:38:10.942Z,97596.94
2022-12-23T01:40:12.540Z,97599.97
2022-12-23T01:42:34.951Z,97594.50
2022-12-23T01:44:55.043Z,97587.13
2022-12-23T01:46:56.906Z,97583.84
2022-12-23T01:49:07.590Z,97593.16
2022-12-23T01:51:32.813Z,97583.06
2022-12-23T01:53:45.629Z,97580.84
2022-12-23T01:56:25.022Z,97580.03
2022-12-23T01:58:39.331Z,97577.03
2022-12-23T02:01:00.388Z,97581.41
2022-12-23T02:03:20.441Z,97580.31
2022-12-23T02:05:23.850Z,97587.69
2022-12-23T02:07:44.538Z,97597.28
2022-12-23T02:09:48.722Z,97606.56
2022-12-23T02:12:28.850Z,97599.72
2022-12-23T02:14:55.957Z,97610.13
2022-12-23T02:17:14.706Z,97606.31
2022-12-23T02:19:42.650Z,97605.78
2022-12-23T02:22:11.233Z,97615.25
2022-12-23T02:24:35.567Z,97611.19
2022-12-23T02:27:04.944Z,97611.78
2022-12-23T02:29:27.460Z,97615.84
2022-12-23T02:31:47.877Z,97607.66
2022-12-23T02:33:59.655Z,97604.00
2022-12-23T02:36:14.357Z,97613.63
2022-12-23T02:38:44.030Z,97610.91
2022-12-23T02:40:59.534Z,97611.19
2022-12-23T02:43:22.053Z,97620.50
2022-12-23T02:45:33.297Z,97613.38
2022-12-23T02:47:52.512Z,97617.75
2022-12-23T02:50:04.242Z,97603.28
2022-12-23T02:52:20.578Z,97604.09
2022-12-23T02:54:29.393Z,97601.88
2022-12-23T02:56:33.506Z,97595.38
2022-12-23T02:58:56.895Z,97606.00
2022-12-23T03:01:02.225Z,97600.03
2022-12-23T03:03:07.267Z,97602.22
2022-12-23T03:05:34.063Z,97598.41
2022-12-23T03:07:42.343Z,97597.50
2022-12-23T03:10:31.873Z,97598.84
2022-12-23T03:12:43.191Z,97595.34
2022-12-23T03:15:00.875Z,97593.16
2022-12-23T03:17:05.442Z,97596.47
2022-12-23T03:19:59.975Z,97599.50
2022-12-23T03:22:27.160Z,97598.41
2022-12-23T03:24:43.374Z,97592.91
2022-12-23T03:27:01.414Z,97597.56
2022-12-23T03:29:12.624Z,97597.56
2022-12-23T03:31:20.230Z,97597.84
2022-12-23T03:33:31.707Z,97604.13
2022-12-23T03:35:44.010Z,97597.59
2022-12-23T03:37:50.749Z,97599.75
2022-12-23T03:40:30.480Z,97592.09
2022-12-23T03:42:37.096Z,97598.63
2022-12-23T03:45:03.524Z,97601.88
2022-12-23T03:47:13.369Z,97597.50
2022-12-23T03:49:30.251Z,97601.88
2022-12-23T03:51:44.634Z,97612.81
2022-12-23T03:53:53.866Z,97614.16
2022-12-23T03:56:02.797Z,97619.88
2022-12-23T03:58:21.453Z,97613.34
2022-12-23T04:00:23.262Z,97619.94
2022-12-23T04:02:39.555Z,97621.81
2022-12-23T04:05:09.063Z,97613.59
2022-12-23T04:07:16.689Z,97617.41
2022-12-23T04:09:22.428Z,97615.50
2022-12-23T04:11:28.855Z,97623.72
2022-12-23T04:13:31.129Z,97618.53
2022-12-23T04:15:36.087Z,97621.28
2022-12-23T04:17:37.878Z,97621.81
2022-12-23T04:19:39.437Z,97626.97
2022-12-23T04:21:43.300Z,97626.16
2022-12-23T04:23:44.933Z,97634.06
2022-12-23T04:25:49.614Z,97640.38
2022-12-23T04:27:51.292Z,97639.81
2022-12-23T04:29:55.354Z,97641.19
2022-12-23T04:31:57.027Z,97647.19
2022-12-23T04:33:58.825Z,97642.28
2022-12-23T04:36:03.622Z,97641.16
2022-12-23T04:38:05.261Z,97639.53
2022-12-23T04:40:07.425Z,97649.63
2022-12-23T04:42:11.744Z,97647.41
2022-12-23T04:44:13.420Z,97652.31
2022-12-23T04:46:15.156Z,97648.50
2022-12-23T04:48:17.010Z,97644.88
2022-12-23T04:50:18.647Z,97645.97
2022-12-23T04:52:20.135Z,97658.03
2022-12-23T04:54:21.785Z,97664.59
2022-12-23T04:56:23.334Z,97673.34
2022-12-23T04:58:25.245Z,97677.69
2022-12-23T05:00:31.570Z,97684.22
2022-12-23T05:02:37.588Z,97674.91
2022-12-23T05:04:39.278Z,97680.13
2022-12-23T05:06:40.954Z,97678.22
2022-12-23T05:08:42.733Z,97681.16
2022-12-23T05:10:47.133Z,97676.25
2022-12-23T05:12:48.779Z,97687.75
2022-12-23T05:14:50.489Z,97681.28
2022-12-23T05:16:55.079Z,97688.13
2022-12-23T05:18:56.757Z,97684.84
2022-12-23T05:20:58.382Z,97683.25
2022-12-23T05:23:02.886Z,97684.28
2022-12-23T05:25:14.321Z,97690.88
2022-12-23T05:27:16.097Z,97690.56
2022-12-23T05:29:17.679Z,97692.25
2022-12-23T05:31:20.279Z,97697.16
2022-12-23T05:33:22.153Z,97708.09
2022-12-23T05:35:25.912Z,97714.91
2022-12-23T05:37:27.639Z,97708.38
2022-12-23T05:39:29.446Z,97715.50
2022-12-23T05:41:33.850Z,97704.03
2022-12-23T05:43:35.497Z,97695.56
2022-12-23T05:45:37.503Z,97695.00
2022-12-23T05:47:39.085Z,97702.91
2022-12-23T05:49:44.060Z,97698.25
2022-12-23T05:51:45.666Z,97710.78
2022-12-23T05:53:47.326Z,97729.13
2022-12-23T05:55:49.090Z,97717.91
2022-12-23T05:57:51.769Z,97719.81
2022-12-23T05:59:53.739Z,97731.84
2022-12-23T06:01:55.422Z,97726.94
2022-12-23T06:03:57.368Z,97732.66
2022-12-23T06:05:59.068Z,97731.31
2022-12-23T06:08:06.620Z,97737.38
2022-12-23T06:10:13.271Z,97735.69
2022-12-23T06:12:15.092Z,97740.31
2022-12-23T06:14:19.635Z,97753.72
2022-12-23T06:16:24.403Z,97748.50
2022-12-23T06:18:29.156Z,97740.59
2022-12-23T06:20:31.325Z,97742.50
2022-12-23T06:22:33.384Z,97741.44
2022-12-23T06:24:42.424Z,97738.41
2022-12-23T06:26:44.012Z,97749.31
2022-12-23T06:28:45.639Z,97750.38
2022-12-23T06:30:53.210Z,97759.19
2022-12-23T06:32:54.692Z,97760.53
2022-12-23T06:35:04.031Z,97765.19
2022-12-23T06:37:05.630Z,97766.56
2022-12-23T06:39:07.386Z,97767.38
2022-12-23T06:41:08.987Z,97770.34
2022-12-23T06:43:14.532Z,97764.84
2022-12-23T06:45:17.560Z,97769.78
2022-12-23T06:47:22.102Z,97775.53
2022-12-23T06:49:29.699Z,97782.09
2022-12-23T06:51:31.338Z,97790.88
2022-12-23T06:53:32.835Z,97793.06
2022-12-23T06:55:34.440Z,97790.34
2022-12-23T06:57:36.288Z,97791.97
2022-12-23T06:59:37.957Z,97791.94
2022-12-23T07:01:40.858Z,97790.31
2022-12-23T07:03:42.673Z,97793.31
2022-12-23T07:05:50.587Z,97785.84
2022-12-23T07:07:52.226Z,97796.00
2022-12-23T07:09:56.282Z,97786.94
2022-12-23T07:11:57.985Z,97795.16
2022-12-23T07:14:00.426Z,97799.22
2022-12-23T07:16:09.033Z,97794.59
2022-12-23T07:18:10.704Z,97794.00
2022-12-23T07:20:14.415Z,97798.41
2022-12-23T07:22:16.045Z,97806.09
2022-12-23T07:24:17.578Z,97814.84
2022-12-23T07:26:22.954Z,97814.88
2022-12-23T07:28:27.180Z,97823.38
2022-12-23T07:30:29.344Z,97821.44
2022-12-23T07:32:30.938Z,97829.97
2022-12-23T07:34:32.536Z,97833.53
2022-12-23T07:36:34.399Z,97830.22
2022-12-23T07:38:36.073Z,97838.69
2022-12-23T07:40:39.616Z,97841.69
2022-12-23T07:42:46.515Z,97839.75
2022-12-23T07:44:48.635Z,97836.44
2022-12-23T07:46:50.220Z,97840.00
2022-12-23T07:48:51.890Z,97835.63
2022-12-23T07:50:53.482Z,97837.00
2022-12-23T07:52:55.604Z,97835.84
2022-12-23T07:54:57.626Z,97838.88
2022-12-23T07:56:59.321Z,97829.28
2022-12-23T07:59:03.703Z,97830.38
2022-12-23T08:01:08.151Z,97824.38
2022-12-23T08:03:13.444Z,97824.63
2022-12-23T08:05:18.802Z,97831.75
2022-12-23T08:07:20.851Z,97837.22
2022-12-23T08:09:30.094Z,97832.88
2022-12-23T08:11:34.574Z,97827.41
2022-12-23T08:13:44.070Z,97827.59
2022-12-23T08:15:47.321Z,97822.44
2022-12-23T08:17:49.339Z,97824.63
2022-12-23T08:19:53.625Z,97821.59
2022-12-23T08:21:56.403Z,97825.94
2022-12-23T08:23:58.257Z,97831.44
2022-12-23T08:26:02.877Z,97841.53
2022-12-23T08:28:04.610Z,97835.25
2022-12-23T08:30:08.243Z,97837.72
2022-12-23T08:32:12.828Z,97850.53
2022-12-23T08:34:16.033Z,97861.72
2022-12-23T08:36:23.941Z,97873.75
2022-12-23T08:38:25.673Z,97888.50
2022-12-23T08:40:27.519Z,97884.69
2022-12-23T08:42:32.066Z,97896.72
2022-12-23T08:44:33.824Z,97892.06
2022-12-23T08:46:36.630Z,97895.59
2022-12-23T08:48:45.163Z,97896.13
2022-12-23T08:50:51.308Z,97883.50
2022-12-23T08:52:52.812Z,97883.50
2022-12-23T08:54:54.520Z,97883.75
2022-12-23T08:56:56.064Z,97885.41
2022-12-23T08:58:58.203Z,97885.13
2022-12-23T09:01:03.967Z,97877.69
2022-12-23T09:03:05.867Z,97886.13
2022-12-23T09:05:07.818Z,97878.47
2022-12-23T09:07:09.433Z,97880.09
2022-12-23T09:09:15.877Z,97891.28
2022-12-23T09:11:28.792Z,97885.00
2022-12-23T09:13:35.078Z,97889.38
2022-12-23T09:15:45.094Z,97883.31
2022-12-23T09:17:46.744Z,97883.28
2022-12-23T09:19:52.764Z,97878.00
2022-12-23T09:21:54.988Z,97874.44
2022-12-23T09:23:59.495Z,97885.41
2022-12-23T09:26:01.135Z,97878.78
2022-12-23T09:28:11.943Z,97879.00
2022-12-23T09:30:17.126Z,97880.91
2022-12-23T09:32:19.297Z,97866.09
2022-12-23T09:34:20.952Z,97868.47
2022-12-23T09:36:23.084Z,97869.88
2022-12-23T09:38:24.728Z,97871.16
2022-12-23T09:40:30.341Z,97855.75
2022-12-23T09:42:48.581Z,97867.03
2022-12-23T09:45:17.607Z,97849.75
2022-12-23T09:47:22.612Z,97846.66
2022-12-23T09:49:24.283Z,97851.56
2022-12-23T09:51:29.034Z,97843.28
2022-12-23T09:53:55.343Z,97848.16
2022-12-23T09:56:48.172Z,97848.16
2022-12-23T09:59:31.411Z,97843.28
2022-12-23T10:01:45.422Z,97839.97
2022-12-23T10:04:02.233Z,97841.59
2022-12-23T10:06:31.613Z,97850.44
2022-12-23T10:08:51.109Z,97853.09
2022-12-23T10:11:11.959Z,97856.88
2022-12-23T10:13:39.644Z,97865.69
2022-12-23T10:15:45.525Z,97864.28
2022-12-23T10:17:55.425Z,97864.28
2022-12-23T10:20:04.700Z,97868.72
2022-12-23T10:22:15.048Z,97862.72
2022-12-23T10:24:22.910Z,97853.75
2022-12-23T10:26:48.705Z,97850.47
2022-12-23T10:29:18.387Z,97852.34
2022-12-23T10:31:41.336Z,97853.44
2022-12-23T10:33:55.719Z,97850.69
2022-12-23T10:36:16.229Z,97843.88
2022-12-23T10:38:53.018Z,97842.78
2022-12-23T10:41:11.146Z,97837.81
2022-12-23T10:43:54.212Z,97846.09
2022-12-23T10:46:26.783Z,97844.41
2022-12-23T10:48:47.012Z,97852.03
2022-12-23T10:51:21.468Z,97864.69
2022-12-23T10:53:32.501Z,97854.84
2022-12-23T10:55:41.359Z,97862.78
2022-12-23T10:57:45.531Z,97852.34
2022-12-23T10:59:54.417Z,97852.56
2022-12-23T11:02:43.950Z,97846.56
2022-12-23T11:04:51.041Z,97841.66
2022-12-23T11:07:18.172Z,97844.63
2022-12-23T11:09:23.996Z,97832.34
2022-12-23T11:11:45.959Z,97822.47
2022-12-23T11:13:47.938Z,97824.94
2022-12-23T11:15:49.840Z,97828.25
2022-12-23T11:18:23.953Z,97824.94
2022-12-23T11:20:25.800Z,97830.63
2022-12-23T11:22:33.436Z,97827.09
2022-12-23T11:24:41.273Z,97826.81
2022-12-23T11:26:51.642Z,97819.09
2022-12-23T11:29:06.745Z,97808.13
2022-12-23T11:31:16.321Z,97805.91
2022-12-23T11:34:00.043Z,97804.81
2022-12-23T11:36:07.393Z,97796.28
2022-12-23T11:38:17.058Z,97795.50
2022-12-23T11:40:29.241Z,97793.84
2022-12-23T11:42:34.020Z,97795.50
2022-12-23T11:44:47.713Z,97791.41
2022-12-23T11:46:57.019Z,97778.81
2022-12-23T11:49:31.487Z,97771.94
2022-12-23T11:51:33.313Z,97772.44
2022-12-23T11:53:36.698Z,97768.59
2022-12-23T11:55:57.108Z,97769.44
2022-12-23T11:58:00.629Z,97766.03
2022-12-23T12:00:04.803Z,97759.75
2022-12-23T12:02:18.639Z,97763.31
2022-12-23T12:04:25.427Z,97771.22
2022-12-23T12:06:31.519Z,97761.34
2022-12-23T12:08:37.526Z,97752.59
2022-12-23T12:10:40.642Z,97754.78
2022-12-23T12:12:43.444Z,97754.66
2022-12-23T12:14:56.999Z,97747.59
2022-12-23T12:17:05.633Z,97743.47
2022-12-23T12:19:27.285Z,97747.53
2022-12-23T12:21:36.604Z,97742.66
2022-12-23T12:24:08.293Z,97746.44
2022-12-23T12:26:37.269Z,97742.59
2022-12-23T12:28:50.053Z,97740.66
2022-12-23T12:31:05.921Z,97728.66
2022-12-23T12:33:25.080Z,97728.34
2022-12-23T12:36:03.339Z,97722.28
2022-12-23T12:38:21.679Z,97725.59
2022-12-23T12:40:31.322Z,97720.94
2022-12-23T12:42:40.598Z,97713.47
2022-12-23T12:44:54.918Z,97709.06
2022-12-23T12:47:53.355Z,97696.56
2022-12-23T12:50:20.445Z,97701.00
2022-12-23T12:52:26.833Z,97697.72
2022-12-23T12:54:35.239Z,97702.13
2022-12-23T12:56:44.193Z,97703.50
2022-12-23T12:58:48.726Z,97701.59
2022-12-23T13:01:07.117Z,97708.13
2022-12-23T13:03:31.831Z,97708.13
2022-12-23T13:06:06.986Z,97708.94
2022-12-23T13:08:30.430Z,97713.09
2022-12-23T13:10:44.659Z,97712.56
2022-12-23T13:13:31.364Z,97710.09
2022-12-23T13:15:48.728Z,97697.47
2022-12-23T13:18:04.036Z,97688.47
2022-12-23T13:20:31.472Z,97679.94
2022-12-23T13:22:34.361Z,97678.84
2022-12-23T13:24:57.600Z,97672.59
2022-12-23T13:27:17.896Z,97665.47
2022-12-23T13:29:32.995Z,97652.91
2022-12-23T13:31:55.231Z,97639.47
2022-12-23T13:34:28.646Z,97643.63
2022-12-23T13:36:57.273Z,97632.16
2022-12-23T13:39:29.783Z,97626.91
2022-12-23T13:41:39.458Z,97613.41
2022-12-23T13:43:49.381Z,97616.06
2022-12-23T13:45:54.486Z,97611.41
2022-12-23T13:48:09.168Z,97610.88
2022-12-23T13:50:24.560Z,97613.88
2022-12-23T13:52:51.102Z,97609.78
2022-12-23T13:55:27.490Z,97606.81
2022-12-23T13:58:02.882Z,97593.13
2022-12-23T14:00:16.955Z,97593.13
2022-12-23T14:02:52.299Z,97600.94
2022-12-23T14:04:59.984Z,97603.63
2022-12-23T14:07:04.366Z,97584.75
2022-12-23T14:09:06.164Z,97587.03
2022-12-23T14:11:28.799Z,97590.28
2022-12-23T14:13:40.061Z,97587.88
2022-12-23T14:16:10.072Z,97584.31
2022-12-23T14:18:36.722Z,97587.31
2022-12-23T14:20:44.250Z,97584.38
2022-12-23T14:23:05.520Z,97587.19
2022-12-23T14:25:36.255Z,97580.66
2022-12-23T14:28:06.125Z,97570.09
2022-12-23T14:30:24.016Z,97565.44
2022-12-23T14:32:28.651Z,97565.72
2022-12-23T14:34:33.853Z,97558.00
2022-12-23T14:36:38.614Z,97567.63
2022-12-23T14:38:40.623Z,97565.72
2022-12-23T14:40:42.679Z,97561.13
2022-12-23T14:42:44.747Z,97553.50
2022-12-23T14:44:51.493Z,97546.94
2022-12-23T14:46:57.311Z,97548.34
2022-12-23T14:49:16.212Z,97545.88
2022-12-23T14:51:32.946Z,97537.16
2022-12-23T14:53:58.570Z,97534.41
2022-12-23T14:56:26.591Z,97535.00
2022-12-23T14:58:50.884Z,97530.91
2022-12-23T15:01:00.692Z,97527.38
2022-12-23T15:03:04.672Z,97515.22
2022-12-23T15:05:07.044Z,97505.41
2022-12-23T15:07:41.143Z,97499.09
2022-12-23T15:10:01.581Z,97499.91
2022-12-23T15:12:12.376Z,97497.69
2022-12-23T15:14:28.611Z,97493.53
2022-12-23T15:16:37.027Z,97505.31
2022-12-23T15:18:52.550Z,97511.00
2022-12-23T15:21:02.495Z,97503.59
2022-12-23T15:23:15.589Z,97508.84
2022-12-23T15:25:27.698Z,97507.81
2022-12-23T15:27:35.053Z,97519.81
2022-12-23T15:29:51.967Z,97510.50
2022-12-23T15:31:59.659Z,97504.69
2022-12-23T15:34:17.040Z,97515.66
2022-12-23T15:36:46.907Z,97511.81
2022-12-23T15:38:51.088Z,97498.94
2022-12-23T15:41:01.731Z,97478.44
2022-12-23T15:43:22.780Z,97491.53
2022-12-23T15:45:31.964Z,97484.94
2022-12-23T15:47:43.092Z,97483.31
2022-12-23T15:49:52.476Z,97479.25
2022-12-23T15:52:10.892Z,97489.06
2022-12-23T15:54:26.786Z,97469.63
2022-12-23T15:56:33.449Z,97473.69
2022-12-23T15:59:12.643Z,97469.81
2022-12-23T16:01:17.311Z,97464.13
2022-12-23T16:03:37.198Z,97462.19
2022-12-23T16:05:39.106Z,97450.94
2022-12-23T16:07:41.987Z,97454.78
2022-12-23T16:09:44.881Z,97450.44
2022-12-23T16:12:04.290Z,97443.81
2022-12-23T16:14:27.827Z,97436.75
2022-12-23T16:16:40.631Z,97434.50
2022-12-23T16:18:47.898Z,97438.06
2022-12-23T16:20:54.781Z,97432.59
2022-12-23T16:23:01.519Z,97418.06
2022-12-23T16:25:15.670Z,97419.16
2022-12-23T16:27:20.109Z,97422.41
2022-12-23T16:29:24.361Z,97409.53
2022-12-23T16:31:26.549Z,97417.75
2022-12-23T16:33:55.260Z,97411.44
2022-12-23T16:36:40.293Z,97404.88
2022-12-23T16:38:44.942Z,97403.22
2022-12-23T16:40:57.587Z,97403.22
2022-12-23T16:42:59.159Z,97402.13
2022-12-23T16:45:00.816Z,97405.09
2022-12-23T16:47:15.347Z,97386.19
2022-12-23T16:49:33.003Z,97396.56
2022-12-23T16:53:58.330Z,97399.31
2022-12-23T16:56:01.471Z,97394.31
2022-12-23T16:58:03.303Z,97377.88
2022-12-23T17:00:05.383Z,97385.28
2022-12-23T17:02:18.685Z,97400.63
2022-12-23T17:04:22.761Z,97395.16
2022-12-23T17:06:30.978Z,97408.25
2022-12-23T17:08:33.579Z,97394.75
2022-12-23T17:10:37.997Z,97394.13
2022-12-23T17:12:53.909Z,97391.94
2022-12-23T17:14:57.204Z,97395.78
2022-12-23T17:17:08.015Z,97392.53
2022-12-23T17:19:12.483Z,97400.94
2022-12-23T17:21:21.534Z,97402.34
2022-12-23T17:23:29.626Z,97399.63
2022-12-23T17:25:33.649Z,97390.78
2022-12-23T17:27:35.447Z,97379.84
2022-12-23T17:29:39.346Z,97389.69
2022-12-23T17:32:03.452Z,97394.34
2022-12-23T17:34:13.086Z,97405.31
2022-12-23T17:36:15.426Z,97412.72
2022-12-23T17:38:17.289Z,97422.59
2022-12-23T17:40:23.861Z,97425.00
2022-12-23T17:42:26.256Z,97414.88
2022-12-23T17:44:28.036Z,97413.75
2022-12-23T17:46:29.695Z,97405.25
2022-12-23T17:48:32.120Z,97404.72
2022-12-23T17:50:38.179Z,97398.41
2022-12-23T17:52:44.208Z,97375.91
2022-12-23T17:54:50.825Z,97386.88
2022-12-23T17:56:52.949Z,97402.19
2022-12-23T17:59:00.778Z,97407.69
2022-12-23T18:01:02.506Z,97412.06
2022-12-23T18:03:05.769Z,97408.50
2022-12-23T18:05:28.989Z,97410.41
2022-12-23T18:07:30.722Z,97406.56
2022-12-23T18:09:32.328Z,97417.22
2022-12-23T18:11:36.968Z,97412.56
2022-12-23T18:13:41.143Z,97417.75
2022-12-23T18:15:44.382Z,97422.94
2022-12-23T18:17:49.142Z,97421.81
2022-12-23T18:19:50.951Z,97427.22
2022-12-23T18:21:52.998Z,97416.75
2022-12-23T18:23:59.746Z,97420.00
2022-12-23T18:26:04.364Z,97421.00
2022-12-23T18:28:10.188Z,97418.78
2022-12-23T18:30:13.055Z,97426.69
2022-12-23T18:32:25.139Z,97429.44
2022-12-23T18:34:30.076Z,97420.91
2022-12-23T18:36:34.960Z,97426.59
2022-12-23T18:38:36.779Z,97423.53
2022-12-23T18:40:40.064Z,97427.59
2022-12-23T18:42:41.685Z,97430.34
2022-12-23T18:44:44.446Z,97441.84
2022-12-23T18:46:46.673Z,97432.97
2022-12-23T18:48:48.657Z,97429.13
2022-12-23T18:50:53.211Z,97436.25
2022-12-23T18:52:56.580Z,97438.69
2022-12-23T18:54:58.393Z,97444.66
2022-12-23T18:57:02.097Z,97442.75
2022-12-23T18:59:03.952Z,97445.19
2022-12-23T19:01:10.745Z,97444.88
2022-12-23T19:03:22.332Z,97432.78
2022-12-23T19:05:34.677Z,97441.53
2022-12-23T19:07:39.085Z,97441.72
2022-12-23T19:09:43.241Z,97447.44
2022-12-23T19:11:47.827Z,97461.97
2022-12-23T19:13:49.474Z,97484.69
2022-12-23T19:15:52.370Z,97495.38
2022-12-23T19:17:58.337Z,97475.03
2022-12-23T19:20:00.321Z,97448.13
2022-12-23T19:22:03.050Z,97471.69
2022-12-23T19:24:05.013Z,97471.41
2022-12-23T19:26:08.261Z,97486.75
2022-12-23T19:28:12.863Z,97487.88
2022-12-23T19:30:17.399Z,97488.38
2022-12-23T19:32:19.066Z,97496.28
2022-12-23T19:34:20.990Z,97490.50
2022-12-23T19:36:23.042Z,97491.63
2022-12-23T19:38:25.896Z,97503.91
2022-12-23T19:40:29.383Z,97487.94
2022-12-23T19:42:31.199Z,97499.75
2022-12-23T19:44:42.047Z,97496.69
2022-12-23T19:46:43.819Z,97509.00
2022-12-23T19:48:55.136Z,97509.81
2022-12-23T19:50:58.750Z,97507.56
2022-12-23T19:53:00.593Z,97521.81
2022-12-23T19:55:02.314Z,97525.88
2022-12-23T19:57:04.373Z,97527.81
2022-12-23T19:59:06.082Z,97531.66
2022-12-23T20:01:14.314Z,97538.78
2022-12-23T20:03:15.923Z,97544.28
2022-12-23T20:05:25.201Z,97555.53
2022-12-23T20:07:29.983Z,97553.34
2022-12-23T20:09:32.038Z,97555.53
2022-12-23T20:11:36.971Z,97566.25
2022-12-23T20:13:40.232Z,97560.25
2022-12-23T20:15:42.133Z,97558.59
2022-12-23T20:17:43.737Z,97558.41
2022-12-23T20:19:46.418Z,97564.69
2022-12-23T20:21:48.279Z,97571.31
2022-12-23T20:23:50.119Z,97572.94
2022-12-23T20:25:51.803Z,97572.75
2022-12-23T20:27:56.114Z,97565.00
2022-12-23T20:29:57.690Z,97555.16
2022-12-23T20:31:59.303Z,97567.03
2022-12-23T20:34:01.746Z,97560.22
2022-12-23T20:36:05.831Z,97556.16
2022-12-23T20:38:07.816Z,97562.47
2022-12-23T20:40:12.407Z,97569.88
2022-12-23T20:42:14.120Z,97565.81
2022-12-23T20:46:40.720Z,97578.22
2022-12-23T20:48:46.726Z,97571.09
2022-12-23T20:50:48.784Z,97566.22
2022-12-23T20:52:51.555Z,97572.00
2022-12-23T20:54:53.284Z,97568.44
2022-12-23T20:56:55.045Z,97576.66
2022-12-23T20:59:00.225Z,97574.25
2022-12-23T21:01:14.333Z,97574.75
2022-12-23T21:03:16.300Z,97581.38
2022-12-23T21:05:17.949Z,97566.31
2022-12-23T21:07:19.625Z,97566.81
2022-12-23T21:09:21.274Z,97567.44
2022-12-23T21:11:23.681Z,97575.88
2022-12-23T21:13:25.478Z,97576.97
2022-12-23T21:15:27.092Z,97585.44
2022-12-23T21:17:31.164Z,97592.84
2022-12-23T21:19:34.760Z,97594.78
2022-12-23T21:21:36.492Z,97605.44
2022-12-23T21:23:40.538Z,97626.38
2022-12-23T21:25:42.249Z,97639.78
2022-12-23T21:27:43.817Z,97635.09
2022-12-23T21:29:45.369Z,97644.16
2022-12-23T21:31:47.449Z,97642.31
2022-12-23T21:33:50.284Z,97657.38
2022-12-23T21:35:51.954Z,97653.31
2022-12-23T21:37:53.616Z,97655.22
2022-12-23T21:39:55.506Z,97647.00
2022-12-23T21:41:57.527Z,97655.22
2022-12-23T21:44:00.468Z,97655.53
2022-12-23T21:46:05.685Z,97661.31
2022-12-23T21:48:07.587Z,97684.38
2022-12-23T21:50:09.716Z,97685.16
2022-12-23T21:52:18.353Z,97691.28
2022-12-23T21:54:20.181Z,97692.06
2022-12-23T21:56:27.543Z,97692.63
2022-12-23T21:58:29.200Z,97688.81
2022-12-23T22:00:30.936Z,97684.16
2022-12-23T22:02:32.578Z,97686.59
2022-12-23T22:04:39.891Z,97672.34
2022-12-23T22:06:45.967Z,97667.19
2022-12-23T22:08:48.120Z,97680.59
2022-12-23T22:10:50.443Z,97689.94
2022-12-23T22:12:52.152Z,97696.53
2022-12-23T22:14:55.158Z,97705.88
2022-12-23T22:16:56.975Z,97721.22
2022-12-23T22:19:02.769Z,97716.84
2022-12-23T22:21:10.358Z,97723.22
2022-12-23T22:23:12.015Z,97726.28
2022-12-23T22:25:14.394Z,97721.06
2022-12-23T22:27:16.142Z,97716.72
2022-12-23T22:29:17.873Z,97715.38
2022-12-23T22:31:43.852Z,97718.72
2022-12-23T22:33:46.100Z,97717.16
2022-12-23T22:35:55.680Z,97720.22
2022-12-23T22:37:58.151Z,97719.19
2022-12-23T22:39:59.688Z,97712.56
2022-12-23T22:42:01.482Z,97715.03
2022-12-23T22:44:03.139Z,97713.38
2022-12-23T22:46:04.963Z,97722.44
2022-12-23T22:48:06.946Z,97733.16
2022-12-23T22:50:09.191Z,97726.88
2022-12-23T22:52:10.836Z,97726.94
2022-12-23T22:54:12.552Z,97729.41
2022-12-23T22:56:15.980Z,97731.09
2022-12-23T22:58:17.806Z,97739.94
2022-12-23T23:00:19.414Z,97752.00
2022-12-23T23:02:21.234Z,97748.44
2022-12-23T23:04:24.504Z,97744.06
2022-12-23T23:06:29.018Z,97742.69
2022-12-23T23:08:34.657Z,97759.22
2022-12-23T23:10:37.377Z,97765.28
2022-12-23T23:12:39.875Z,97766.69
2022-12-23T23:14:53.605Z,97771.03
2022-12-23T23:16:55.296Z,97779.31
2022-12-23T23:19:00.453Z,97768.38
2022-12-23T23:21:02.052Z,97775.56
2022-12-23T23:23:04.045Z,97789.00
2022-12-23T23:25:06.400Z,97788.50
2022-12-23T23:27:08.058Z,97794.03
2022-12-23T23:29:09.611Z,97800.41
2022-12-23T23:31:41.392Z,97805.34
2022-12-23T23:33:36.301Z,97805.09
2022-12-23T23:35:37.998Z,97815.53
2022-12-23T23:37:39.642Z,97823.75
2022-12-23T23:39:41.390Z,97822.69
2022-12-23T23:41:45.767Z,97829.56
2022-12-23T23:43:47.413Z,97819.94
2022-12-23T23:45:50.043Z,97829.56
2022-12-23T23:47:51.694Z,97823.88
2022-12-23T23:49:55.305Z,97827.19
2022-12-23T23:51:56.862Z,97823.91
2022-12-23T23:53:58.473Z,97836.28
2022-12-23T23:56:13.503Z,97837.66
2022-12-23T23:58:15.392Z,97850.00
